createdAt,value
2022-10-18T05:58:15.948Z,11.75
2022-10-18T06:00:43.313Z,13.73
2022-10-18T06:03:10.613Z,11.57
2022-10-18T06:08:10.644Z,11.63
2022-10-18T06:10:40.328Z,13.23
2022-10-18T06:13:07.342Z,12.63
2022-10-18T06:15:34.349Z,12.27
2022-10-18T06:18:01.692Z,12.63
2022-10-18T06:20:28.726Z,12.80
2022-10-18T06:22:55.786Z,12.80
2022-10-18T06:25:23.085Z,12.05
2022-10-18T06:27:50.109Z,11.23
2022-10-18T06:30:17.206Z,11.40
2022-10-18T06:32:44.486Z,10.80
2022-10-18T06:35:11.524Z,12.73
2022-10-18T06:37:38.519Z,12.65
2022-10-18T06:40:06.673Z,12.43
2022-10-18T06:42:34.146Z,12.85
2022-10-18T06:45:01.463Z,13.10
2022-10-18T06:47:28.779Z,12.45
2022-10-18T06:49:55.781Z,10.55
2022-10-18T06:52:25.663Z,10.60
2022-10-18T06:54:53.958Z,10.38
2022-10-18T06:57:21.535Z,10.55
2022-10-18T06:59:50.013Z,10.20
2022-10-18T07:02:17.532Z,9.75
2022-10-18T07:04:44.547Z,8.55
2022-10-18T07:07:11.577Z,9.38
2022-10-18T07:09:38.909Z,10.45
2022-10-18T07:12:06.212Z,10.23
2022-10-18T07:14:33.214Z,11.40
2022-10-18T07:17:00.541Z,10.75
2022-10-18T07:19:27.590Z,10.95
2022-10-18T07:21:54.639Z,10.27
2022-10-18T07:24:21.944Z,10.50
2022-10-18T07:26:48.998Z,9.25
2022-10-18T07:29:16.097Z,10.63
2022-10-18T07:31:43.480Z,9.73
2022-10-18T07:34:14.604Z,10.32
2022-10-18T07:36:42.112Z,10.57
2022-10-18T07:39:10.294Z,11.52
2022-10-18T07:41:37.404Z,11.00
2022-10-18T07:44:04.654Z,11.32
2022-10-18T07:46:31.977Z,11.73
2022-10-18T07:48:59.601Z,11.52
2022-10-18T07:51:28.016Z,11.70
2022-10-18T07:53:55.293Z,12.60
2022-10-18T07:56:22.528Z,12.95
2022-10-18T07:58:52.223Z,12.55
2022-10-18T08:01:21.170Z,11.95
2022-10-18T08:03:48.790Z,11.48
2022-10-18T08:06:18.514Z,10.60
2022-10-18T08:08:46.119Z,10.82
2022-10-18T08:11:19.510Z,11.50
2022-10-18T08:13:46.794Z,10.60
2022-10-18T08:16:17.475Z,10.85
2022-10-18T08:18:44.545Z,9.77
2022-10-18T08:21:12.842Z,9.20
2022-10-18T08:23:40.313Z,10.35
2022-10-18T08:26:09.534Z,10.07
2022-10-18T08:28:37.092Z,9.55
2022-10-18T08:31:10.688Z,9.57
2022-10-18T08:33:39.682Z,10.25
2022-10-18T08:36:10.969Z,9.20
2022-10-18T08:38:39.251Z,9.82
2022-10-18T08:41:39.487Z,9.38
2022-10-18T08:44:19.496Z,9.45
2022-10-18T08:46:52.326Z,9.30
2022-10-18T08:49:52.207Z,8.77
2022-10-18T08:52:31.428Z,8.20
2022-10-18T08:55:04.715Z,8.05
2022-10-18T08:57:33.238Z,7.60
2022-10-18T09:00:02.407Z,8.02
2022-10-18T09:02:46.735Z,7.50
2022-10-18T09:05:30.113Z,8.43
2022-10-18T09:08:22.376Z,7.95
2022-10-18T09:11:27.139Z,7.20
2022-10-18T09:14:01.085Z,7.90
2022-10-18T09:16:34.486Z,8.30
2022-10-18T09:19:18.480Z,7.70
2022-10-18T09:22:13.746Z,7.53
2022-10-18T09:25:10.000Z,5.85
2022-10-18T09:28:03.799Z,7.22
2022-10-18T09:31:13.293Z,7.82
2022-10-18T09:34:04.626Z,7.10
2022-10-18T09:36:52.113Z,7.60
2022-10-18T09:39:39.573Z,7.07
2022-10-18T09:42:34.812Z,7.15
2022-10-18T09:45:31.599Z,7.12
2022-10-18T09:48:30.158Z,7.82
2022-10-18T09:51:22.326Z,7.05
2022-10-18T09:54:13.734Z,6.15
2022-10-18T09:57:08.333Z,6.43
2022-10-18T09:59:55.139Z,7.05
2022-10-18T10:02:42.238Z,6.37
2022-10-18T10:05:29.372Z,6.97
2022-10-18T10:08:16.118Z,6.75
2022-10-18T10:11:03.374Z,6.87
2022-10-18T10:13:50.215Z,7.35
2022-10-18T10:16:56.006Z,6.05
2022-10-18T10:20:03.882Z,5.93
2022-10-18T10:22:52.048Z,6.07
2022-10-18T10:25:38.926Z,6.43
2022-10-18T10:28:31.726Z,5.85
2022-10-18T10:31:24.736Z,6.60
2022-10-18T10:34:14.888Z,6.22
2022-10-18T10:37:02.671Z,7.35
2022-10-18T10:40:18.301Z,6.72
2022-10-18T10:43:18.096Z,5.57
2022-10-18T10:46:19.041Z,6.80
2022-10-18T10:49:39.235Z,5.78
2022-10-18T10:52:28.935Z,5.72
2022-10-18T10:55:35.388Z,5.03
2022-10-18T10:58:28.147Z,5.37
2022-10-18T11:01:25.672Z,6.03
2022-10-18T11:04:28.523Z,5.62
2022-10-18T11:07:30.538Z,4.95
2022-10-18T11:10:19.895Z,5.62
2022-10-18T11:13:53.403Z,4.90
2022-10-18T11:17:08.109Z,4.10
2022-10-18T11:20:09.668Z,4.62
2022-10-18T11:23:02.265Z,5.68
2022-10-18T11:25:41.791Z,4.65
2022-10-18T11:28:18.961Z,4.95
2022-10-18T11:30:51.597Z,4.30
2022-10-18T11:33:32.624Z,6.03
2022-10-18T11:36:18.514Z,4.70
2022-10-18T11:39:09.053Z,4.62
2022-10-18T11:41:42.335Z,4.32
2022-10-18T11:44:32.722Z,4.00
2022-10-18T11:47:37.016Z,4.22
2022-10-18T11:50:20.042Z,4.32
2022-10-18T11:52:59.388Z,4.90
2022-10-18T11:56:07.085Z,4.57
2022-10-18T11:58:51.136Z,4.47
2022-10-18T12:01:30.581Z,3.87
2022-10-18T12:04:09.505Z,4.03
2022-10-18T12:06:42.040Z,5.00
2022-10-18T12:09:41.734Z,4.97
2022-10-18T12:12:19.489Z,4.45
2022-10-18T12:14:51.830Z,4.93
2022-10-18T12:17:41.813Z,4.12
2022-10-18T12:20:18.566Z,5.65
2022-10-18T12:23:03.127Z,4.87
2022-10-18T12:25:34.307Z,4.95
2022-10-18T12:28:31.726Z,4.75
2022-10-18T12:31:07.999Z,5.10
2022-10-18T12:33:40.684Z,4.82
2022-10-18T12:36:29.027Z,4.35
2022-10-18T12:39:01.927Z,4.30
2022-10-18T12:41:31.629Z,4.25
2022-10-18T12:44:33.706Z,4.45
2022-10-18T12:47:03.299Z,4.95
2022-10-18T12:49:36.741Z,4.68
2022-10-18T12:52:25.649Z,6.05
2022-10-18T12:55:02.828Z,4.87
2022-10-18T12:57:51.678Z,5.40
2022-10-18T13:00:41.825Z,4.50
2022-10-18T13:03:11.976Z,4.70
2022-10-18T13:05:56.286Z,4.93
2022-10-18T13:08:34.072Z,5.10
2022-10-18T13:11:10.276Z,4.10
2022-10-18T13:14:02.041Z,4.75
2022-10-18T13:16:36.700Z,6.95
2022-10-18T13:19:19.233Z,4.22
2022-10-18T13:21:49.058Z,4.45
2022-10-18T13:24:37.350Z,3.97
2022-10-18T13:27:24.557Z,4.20
2022-10-18T13:30:15.960Z,4.43
2022-10-18T13:33:03.926Z,4.68
2022-10-18T13:35:54.927Z,4.80
2022-10-18T13:38:37.072Z,4.87
2022-10-18T13:41:06.009Z,4.32
2022-10-18T13:44:11.690Z,4.90
2022-10-18T13:46:38.916Z,3.87
2022-10-18T13:49:39.700Z,3.58
2022-10-18T13:52:40.344Z,4.07
2022-10-18T13:55:38.520Z,3.70
2022-10-18T13:58:22.226Z,4.57
2022-10-18T14:00:58.268Z,8.57
2022-10-18T14:03:56.322Z,5.80
2022-10-18T14:06:28.523Z,5.43
2022-10-18T14:09:03.369Z,5.10
2022-10-18T14:11:44.142Z,5.20
2022-10-18T14:14:38.147Z,4.12
2022-10-18T14:17:16.804Z,4.05
2022-10-18T14:19:50.449Z,3.83
2022-10-18T14:22:26.910Z,3.90
2022-10-18T14:24:58.317Z,4.30
2022-10-18T14:27:34.327Z,3.53
2022-10-18T14:30:17.196Z,4.10
2022-10-18T14:32:49.278Z,4.00
2022-10-18T14:35:32.865Z,3.95
2022-10-18T14:40:45.798Z,4.10
2022-10-18T14:43:15.452Z,4.50
2022-10-18T14:45:43.098Z,3.92
2022-10-18T14:48:18.470Z,3.95
2022-10-18T14:50:48.937Z,3.80
2022-10-18T14:53:18.690Z,4.22
2022-10-18T14:55:54.140Z,4.43
2022-10-18T14:58:21.237Z,4.40
2022-10-18T15:00:48.811Z,5.12
2022-10-18T15:03:16.965Z,7.10
2022-10-18T15:06:02.507Z,4.82
2022-10-18T15:08:36.906Z,5.32
2022-10-18T15:11:04.668Z,4.75
2022-10-18T15:13:32.551Z,5.18
2022-10-18T15:15:59.763Z,5.20
2022-10-18T15:18:27.614Z,5.72
2022-10-18T15:21:27.494Z,5.97
2022-10-18T15:23:57.633Z,5.90
2022-10-18T15:26:29.473Z,5.75
2022-10-18T15:29:01.450Z,5.15
2022-10-18T15:31:34.677Z,5.10
2022-10-18T15:34:20.508Z,4.93
2022-10-18T15:36:51.032Z,3.90
2022-10-18T15:39:21.469Z,4.65
2022-10-18T15:41:55.182Z,4.32
2022-10-18T15:44:27.854Z,4.95
2022-10-18T15:46:57.440Z,4.90
2022-10-18T15:49:24.408Z,5.68
2022-10-18T15:52:33.947Z,7.37
2022-10-18T15:55:22.930Z,5.22
2022-10-18T15:57:49.967Z,5.90
2022-10-18T16:00:20.045Z,10.55
2022-10-18T16:02:47.332Z,9.27
2022-10-18T16:05:19.014Z,7.87
2022-10-18T16:07:51.386Z,6.97
2022-10-18T16:10:18.746Z,6.87
2022-10-18T16:12:45.837Z,6.82
2022-10-18T16:15:12.884Z,7.80
2022-10-18T16:17:40.166Z,6.72
2022-10-18T16:20:09.930Z,8.02
2022-10-18T16:22:37.161Z,8.00
2022-10-18T16:25:04.901Z,7.03
2022-10-18T16:27:31.917Z,7.53
2022-10-18T16:29:58.943Z,7.35
2022-10-18T16:32:26.588Z,7.82
2022-10-18T16:34:53.597Z,6.85
2022-10-18T16:37:20.569Z,7.37
2022-10-18T16:39:48.068Z,7.75
2022-10-18T16:42:15.057Z,13.68
2022-10-18T16:44:42.117Z,20.65
2022-10-18T16:47:11.382Z,19.02
2022-10-18T16:49:39.806Z,16.42
2022-10-18T16:52:06.805Z,11.43
2022-10-18T16:54:34.959Z,12.70
2022-10-18T16:57:01.951Z,10.20
2022-10-18T16:59:31.184Z,8.68
2022-10-18T17:01:58.677Z,6.85
2022-10-18T17:04:25.767Z,7.00
2022-10-18T17:06:53.997Z,6.60
2022-10-18T17:09:21.283Z,7.53
2022-10-18T17:11:48.278Z,7.28
2022-10-18T17:14:15.266Z,7.47
2022-10-18T17:16:44.534Z,7.18
2022-10-18T17:19:14.878Z,7.55
2022-10-18T17:21:41.834Z,7.90
2022-10-18T17:24:09.278Z,6.57
2022-10-18T17:26:36.267Z,6.65
2022-10-18T17:29:05.761Z,6.68
2022-10-18T17:31:33.462Z,18.23
2022-10-18T17:34:01.929Z,14.20
2022-10-18T17:36:30.937Z,8.27
2022-10-18T17:38:58.463Z,9.45
2022-10-18T17:41:26.193Z,8.57
2022-10-18T17:43:53.390Z,11.65
2022-10-18T17:46:20.925Z,8.85
2022-10-18T17:48:47.953Z,7.62
2022-10-18T17:51:16.669Z,7.85
2022-10-18T17:53:44.341Z,7.50
2022-10-18T17:56:12.383Z,6.45
2022-10-18T17:58:39.639Z,6.57
2022-10-18T18:01:19.055Z,5.90
2022-10-18T18:03:47.899Z,5.87
2022-10-18T18:06:20.213Z,5.35
2022-10-18T18:08:48.600Z,5.50
2022-10-18T18:11:16.990Z,6.12
2022-10-18T18:13:44.012Z,5.30
2022-10-18T18:16:12.346Z,5.85
2022-10-18T18:18:39.325Z,5.62
2022-10-18T18:21:06.499Z,5.32
2022-10-18T18:23:33.817Z,5.95
2022-10-18T18:26:00.821Z,5.75
2022-10-18T18:28:27.947Z,5.40
2022-10-18T18:30:55.306Z,5.10
2022-10-18T18:33:22.322Z,5.15
2022-10-18T18:35:56.893Z,5.00
2022-10-18T18:38:24.834Z,5.35
2022-10-18T18:41:13.208Z,5.78
2022-10-18T18:43:42.802Z,5.10
2022-10-18T18:46:10.294Z,5.07
2022-10-18T18:48:37.457Z,5.05
2022-10-18T18:51:06.251Z,5.78
2022-10-18T18:53:33.280Z,5.25
2022-10-18T18:56:08.520Z,5.85
2022-10-18T18:58:37.996Z,5.40
2022-10-18T19:01:14.717Z,5.78
2022-10-18T19:03:43.060Z,5.25
2022-10-18T19:06:16.233Z,5.82
2022-10-18T19:08:47.178Z,5.22
2022-10-18T19:11:18.022Z,5.18
2022-10-18T19:13:45.591Z,5.37
2022-10-18T19:16:25.521Z,5.70
2022-10-18T19:19:07.136Z,5.55
2022-10-18T19:21:39.352Z,5.60
2022-10-18T19:24:07.384Z,5.37
2022-10-18T19:26:44.890Z,5.32
2022-10-18T19:29:21.287Z,5.57
2022-10-18T19:31:49.505Z,5.65
2022-10-18T19:34:17.799Z,6.30
2022-10-18T19:36:46.383Z,5.70
2022-10-18T19:39:24.839Z,5.87
2022-10-18T19:41:55.271Z,5.93
2022-10-18T19:44:23.281Z,5.37
2022-10-18T19:46:50.838Z,5.85
2022-10-18T19:49:18.238Z,5.82
2022-10-18T19:51:45.401Z,6.10
2022-10-18T19:54:14.095Z,6.30
2022-10-18T19:56:42.220Z,6.45
2022-10-18T19:59:10.110Z,6.25
2022-10-18T20:01:37.587Z,6.10
2022-10-18T20:04:05.462Z,6.28
2022-10-18T20:06:32.458Z,6.37
2022-10-18T20:08:59.494Z,5.62
2022-10-18T20:11:28.684Z,6.50
2022-10-18T20:13:56.220Z,6.75
2022-10-18T20:16:28.425Z,6.30
2022-10-18T20:19:00.752Z,6.43
2022-10-18T20:21:29.314Z,6.62
2022-10-18T20:23:56.617Z,5.70
2022-10-18T20:26:25.539Z,6.40
2022-10-18T20:28:57.781Z,6.47
2022-10-18T20:31:30.332Z,5.78
2022-10-18T20:34:03.269Z,6.07
2022-10-18T20:36:31.890Z,5.50
2022-10-18T20:38:59.865Z,5.47
2022-10-18T20:41:29.352Z,5.62
2022-10-18T20:43:56.562Z,5.70
2022-10-18T20:46:24.078Z,6.12
2022-10-18T20:48:51.837Z,6.15
2022-10-18T20:51:19.688Z,6.10
2022-10-18T20:53:47.013Z,5.97
2022-10-18T20:56:16.485Z,5.65
2022-10-18T20:58:46.081Z,5.47
2022-10-18T21:01:16.673Z,5.20
2022-10-18T21:03:45.223Z,5.22
2022-10-18T21:06:23.280Z,5.07
2022-10-18T21:08:59.416Z,5.10
2022-10-18T21:11:28.141Z,5.65
2022-10-18T21:14:00.213Z,5.50
2022-10-18T21:16:28.752Z,5.72
2022-10-18T21:18:56.072Z,6.10
2022-10-18T21:21:24.286Z,5.18
2022-10-18T21:23:52.296Z,4.93
2022-10-18T21:26:21.816Z,5.50
2022-10-18T21:28:53.480Z,6.55
2022-10-18T21:31:23.085Z,5.62
2022-10-18T21:33:58.590Z,6.20
2022-10-18T21:36:29.943Z,5.50
2022-10-18T21:38:56.929Z,6.32
2022-10-18T21:41:24.508Z,5.50
2022-10-18T21:43:54.576Z,7.03
2022-10-18T21:46:23.066Z,6.32
2022-10-18T21:48:52.450Z,6.70
2022-10-18T21:51:22.214Z,5.82
2022-10-18T21:53:51.473Z,6.10
2022-10-18T21:56:26.499Z,5.62
2022-10-18T21:58:54.111Z,5.47
2022-10-18T22:01:32.141Z,6.18
2022-10-18T22:04:01.221Z,5.57
2022-10-18T22:06:30.328Z,6.22
2022-10-18T22:08:59.228Z,5.85
2022-10-18T22:11:32.815Z,5.53
2022-10-18T22:13:59.881Z,6.65
2022-10-18T22:16:27.669Z,5.78
2022-10-18T22:18:58.356Z,5.55
2022-10-18T22:21:25.726Z,4.78
2022-10-18T22:23:54.428Z,5.47
2022-10-18T22:26:35.781Z,6.37
2022-10-18T22:29:17.756Z,4.82
2022-10-18T22:31:47.079Z,5.30
2022-10-18T22:34:18.092Z,5.43
2022-10-18T22:36:45.834Z,5.62
2022-10-18T22:39:14.463Z,4.93
2022-10-18T22:41:42.393Z,5.10
2022-10-18T22:44:12.373Z,5.15
2022-10-18T22:46:40.541Z,6.20
2022-10-18T22:49:08.140Z,5.80
2022-10-18T22:54:07.564Z,5.32
2022-10-18T22:56:34.584Z,5.50
2022-10-18T22:59:01.630Z,5.95
2022-10-18T23:01:28.929Z,5.25
2022-10-18T23:03:58.239Z,6.00
2022-10-18T23:06:30.791Z,5.12
2022-10-18T23:08:59.865Z,5.43
2022-10-18T23:11:27.797Z,5.22
2022-10-18T23:13:55.251Z,5.30
2022-10-18T23:16:22.759Z,5.60
2022-10-18T23:18:55.096Z,5.30
2022-10-18T23:21:24.462Z,5.05
2022-10-18T23:23:52.841Z,5.37
2022-10-18T23:26:23.168Z,5.60
2022-10-18T23:28:51.613Z,5.78
2022-10-18T23:31:24.748Z,4.97
2022-10-18T23:33:54.298Z,6.07
2022-10-18T23:36:22.123Z,5.65
2022-10-18T23:38:49.289Z,5.45
2022-10-18T23:41:17.501Z,5.70
2022-10-18T23:43:45.130Z,5.80
2022-10-18T23:46:13.208Z,5.75
2022-10-18T23:48:40.579Z,5.85
2022-10-18T23:51:08.037Z,6.20
2022-10-18T23:53:38.300Z,6.35
2022-10-18T23:56:08.356Z,6.00
2022-10-18T23:58:36.520Z,6.03
